Time;durP1;ratioP1;P1;durP2;ratioP2;P2;SDS_P1;SDS_P2;PMS_P1;PMS_P2;Temp;Humidity;BMP_temperature;BMP_pressure;BME280_temperature;BME280_humidity;BME280_pressure;Samples;Min_cycle;Max_cycle;Signal;HPM_P1;HPM_P2
2022/02/05 00:00:35;;;;;;;11.23;3.37;;;3.90;99.90;;;;;;5056195;28;20180;-93
2022/02/05 00:06:21;;;;;;;7.17;2.97;;;3.90;99.90;;;;;;5057666;28;20198;-93
2022/02/05 00:11:46;;;;;;;9.57;3.30;;;3.90;99.90;;;;;;5253038;22;20245;-93
2022/02/05 00:14:32;;;;;;;9.73;3.03;;;3.90;99.90;;;;;;5054874;28;20231;-94
2022/02/05 00:41:19;;;;;;;10.03;3.37;;;3.90;99.90;;;;;;5055665;28;20174;-93
2022/02/05 00:43:53;;;;;;;13.33;3.77;;;3.90;99.90;;;;;;5054257;28;20185;-93
2022/02/05 00:46:20;;;;;;;9.40;3.50;;;3.90;99.90;;;;;;5054472;28;20195;-93
2022/02/05 00:48:46;;;;;;;12.87;4.03;;;3.90;99.90;;;;;;5054187;28;20268;-92
2022/02/05 00:51:17;;;;;;;11.50;3.67;;;3.90;99.90;;;;;;5054255;28;20320;-93
2022/02/05 00:53:46;;;;;;;14.60;3.77;;;3.90;99.90;;;;;;5054540;28;20177;-93
2022/02/05 00:56:21;;;;;;;14.17;4.33;;;3.90;99.90;;;;;;5048020;28;20217;-93
2022/02/05 00:58:47;;;;;;;11.67;3.57;;;3.90;99.90;;;;;;5034541;28;20605;-93
2022/02/05 01:01:13;;;;;;;10.93;3.90;;;4.00;99.90;;;;;;5052532;28;20189;-93
2022/02/05 01:03:39;;;;;;;13.00;3.83;;;3.90;99.90;;;;;;5053654;28;20273;-94
2022/02/05 01:06:07;;;;;;;10.13;3.20;;;4.00;99.90;;;;;;5053985;28;20177;-92
2022/02/05 01:08:33;;;;;;;11.40;3.73;;;4.00;99.90;;;;;;5054022;28;20239;-93
2022/02/05 01:10:59;;;;;;;14.63;4.10;;;4.00;99.90;;;;;;5053432;28;20280;-93
2022/02/05 01:13:28;;;;;;;12.37;3.77;;;4.00;99.90;;;;;;5054117;28;20292;-93
2022/02/05 01:16:05;;;;;;;15.53;3.77;;;4.00;99.90;;;;;;5053893;28;20651;-92
2022/02/05 01:18:31;;;;;;;13.60;3.67;;;3.90;99.90;;;;;;5053455;28;20177;-93
2022/02/05 01:23:39;;;;;;;12.37;3.57;;;4.00;99.90;;;;;;5055206;28;20173;-93
2022/02/05 01:26:14;;;;;;;14.27;4.10;;;4.00;99.90;;;;;;5052945;28;20174;-92
2022/02/05 01:28:41;;;;;;;14.87;4.57;;;4.00;99.90;;;;;;5033906;28;20236;-93
2022/02/05 01:31:07;;;;;;;13.00;3.87;;;4.00;99.90;;;;;;5034027;28;20178;-93
2022/02/05 01:33:54;;;;;;;13.03;3.83;;;4.00;99.90;;;;;;5036695;28;20174;-92
2022/02/05 01:50:30;;;;;;;9.20;3.83;;;4.00;99.90;;;;;;5054762;28;20235;-93
2022/02/05 01:58:15;;;;;;;15.20;4.70;;;4.10;99.90;;;;;;5054852;28;20255;-92
2022/02/05 02:11:52;;;;;;;6.97;4.03;;;4.10;99.90;;;;;;5054808;28;20229;-93
2022/02/05 02:19:46;;;;;;;8.83;4.37;;;4.10;99.90;;;;;;5054476;28;20178;-92
2022/02/05 02:32:18;;;;;;;11.53;3.70;;;4.10;99.90;;;;;;5053809;28;20174;-92
2022/02/05 02:34:49;;;;;;;6.53;3.80;;;4.10;99.90;;;;;;5042794;28;20198;-92
2022/02/05 02:37:25;;;;;;;7.57;4.00;;;4.20;99.90;;;;;;5053321;28;20210;-92
2022/02/05 02:42:23;;;;;;;8.43;4.47;;;4.10;99.90;;;;;;5058094;28;20331;-93
2022/02/05 02:44:48;;;;;;;15.77;5.73;;;4.00;99.90;;;;;;5057234;28;20319;-94
2022/02/05 02:47:15;;;;;;;10.67;5.63;;;3.90;99.90;;;;;;5056624;28;20264;-93
2022/02/05 02:57:49;;;;;;;12.73;6.30;;;3.70;99.90;;;;;;5057807;28;20674;-93
2022/02/05 03:00:15;;;;;;;12.83;6.13;;;3.60;99.90;;;;;;5056662;28;20265;-93
2022/02/05 03:02:40;;;;;;;12.73;6.40;;;3.60;99.90;;;;;;5056677;28;20353;-92
2022/02/05 03:05:06;;;;;;;13.40;6.73;;;3.50;99.90;;;;;;5056284;28;20181;-92
2022/02/05 03:07:32;;;;;;;13.50;6.67;;;3.50;99.90;;;;;;5056262;28;20189;-92
2022/02/05 03:09:58;;;;;;;16.17;6.87;;;3.50;99.90;;;;;;5055818;28;20228;-92
2022/02/05 03:12:24;;;;;;;22.00;7.60;;;3.50;99.90;;;;;;5055956;28;20217;-92
2022/02/05 03:14:51;;;;;;;15.90;6.73;;;3.60;99.90;;;;;;5056314;28;20166;-92
2022/02/05 03:17:26;;;;;;;15.17;7.10;;;3.60;99.90;;;;;;5057193;28;20220;-93
2022/02/05 03:19:55;;;;;;;23.97;7.33;;;3.70;99.90;;;;;;5056259;28;20180;-93
2022/02/05 03:22:22;;;;;;;16.60;6.60;;;3.70;99.90;;;;;;5056232;28;20193;-93
2022/02/05 03:24:49;;;;;;;14.80;6.23;;;3.70;99.90;;;;;;5056064;28;20236;-92
2022/02/05 03:27:16;;;;;;;15.10;6.50;;;3.70;99.90;;;;;;5055698;28;20208;-93
2022/02/05 03:29:47;;;;;;;14.27;5.70;;;3.70;99.90;;;;;;5056172;28;20249;-92
2022/02/05 03:32:13;;;;;;;19.70;5.67;;;3.70;99.90;;;;;;5055651;28;20189;-92
2022/02/05 03:34:39;;;;;;;20.87;5.90;;;3.70;99.90;;;;;;5056542;28;20182;-92
2022/02/05 03:37:06;;;;;;;18.13;5.57;;;3.80;99.90;;;;;;5055441;28;20205;-93
2022/02/05 03:39:32;;;;;;;17.97;5.47;;;3.80;99.90;;;;;;5052401;28;20217;-92
2022/02/05 03:41:58;;;;;;;11.93;4.50;;;3.80;99.90;;;;;;5054360;28;20177;-93
2022/02/05 03:44:24;;;;;;;9.80;5.07;;;3.80;99.90;;;;;;5055967;28;20174;-92
2022/02/05 03:46:52;;;;;;;14.80;4.30;;;3.80;99.90;;;;;;5051695;28;20170;-93
2022/02/05 03:49:19;;;;;;;12.73;4.50;;;3.90;99.90;;;;;;5054596;28;20312;-92
2022/02/05 03:51:46;;;;;;;14.73;4.23;;;3.90;99.90;;;;;;5055960;28;20174;-92
2022/02/05 03:54:13;;;;;;;15.97;4.50;;;3.90;99.90;;;;;;5055872;28;20170;-93
2022/02/05 03:56:39;;;;;;;17.37;4.60;;;4.00;99.90;;;;;;5056460;28;20201;-93
2022/02/05 03:59:05;;;;;;;15.47;4.27;;;3.90;99.90;;;;;;5055663;28;20174;-93
2022/02/05 04:01:31;;;;;;;14.60;3.83;;;3.80;99.90;;;;;;5055641;28;20182;-92
2022/02/05 04:03:56;;;;;;;16.30;3.83;;;3.80;99.90;;;;;;5055271;28;20184;-93
2022/02/05 04:06:22;;;;;;;11.27;3.77;;;4.00;99.90;;;;;;5055255;28;20239;-93
2022/02/05 04:08:50;;;;;;;14.43;3.57;;;3.90;99.90;;;;;;5055484;28;20648;-93
2022/02/05 04:11:30;;;;;;;13.43;3.67;;;4.00;99.90;;;;;;5055006;28;20275;-92
2022/02/05 04:16:41;;;;;;;11.50;3.30;;;4.00;99.90;;;;;;5056380;28;20209;-93
2022/02/05 04:19:07;;;;;;;11.70;3.17;;;4.10;99.90;;;;;;5055396;28;20173;-93
2022/02/05 04:21:34;;;;;;;12.80;3.67;;;4.00;99.90;;;;;;5054334;28;20186;-93
2022/02/05 04:24:01;;;;;;;14.33;3.17;;;4.00;99.90;;;;;;5054765;28;20182;-93
2022/02/05 04:26:28;;;;;;;10.03;3.53;;;4.00;99.90;;;;;;5054383;28;20177;-93
2022/02/05 04:28:54;;;;;;;13.70;3.87;;;4.00;99.90;;;;;;5055224;28;20180;-93
2022/02/05 04:31:19;;;;;;;15.20;3.70;;;4.00;99.90;;;;;;5055002;28;20178;-93
2022/02/05 04:33:45;;;;;;;12.10;3.33;;;4.10;99.90;;;;;;5054489;28;20228;-93
2022/02/05 04:36:12;;;;;;;10.80;2.90;;;4.10;99.90;;;;;;5049924;28;20656;-94
2022/02/05 04:38:40;;;;;;;8.63;3.33;;;4.10;99.90;;;;;;5054095;28;20232;-93
2022/02/05 04:44:04;;;;;;;3.83;1.50;;;4.30;99.90;;;;;;5056416;28;20576;-93
2022/02/05 05:00:05;;;;;;;3.60;0.60;;;2.40;99.90;;;;;;5055631;28;20177;-93
2022/02/05 05:03:01;;;;;;;5.10;1.07;;;2.20;99.90;;;;;;5054280;28;20176;-91
2022/02/05 05:05:48;;;;;;;3.20;0.80;;;2.20;99.90;;;;;;5053912;28;20186;-92
2022/02/05 05:08:33;;;;;;;3.87;0.90;;;2.20;99.90;;;;;;5050896;28;20178;-92
2022/02/05 05:21:37;;;;;;;2.00;0.63;;;2.10;99.90;;;;;;5035034;28;20162;-92
2022/02/05 05:24:03;;;;;;;1.80;0.60;;;2.10;99.90;;;;;;5053677;28;20599;-92
2022/02/05 05:26:29;;;;;;;1.80;0.80;;;2.10;99.90;;;;;;5046171;28;20221;-92
2022/02/05 05:28:54;;;;;;;3.73;1.13;;;2.10;99.90;;;;;;5044506;28;20596;-92
2022/02/05 05:31:20;;;;;;;2.23;1.10;;;2.00;99.90;;;;;;5054009;28;20210;-92
2022/02/05 05:33:46;;;;;;;5.57;1.00;;;2.10;99.90;;;;;;5054251;28;20184;-92
2022/02/05 05:36:11;;;;;;;7.43;1.50;;;2.10;99.90;;;;;;5053579;28;20615;-92
2022/02/05 05:38:37;;;;;;;5.57;1.40;;;2.00;99.90;;;;;;5053761;28;20601;-92
2022/02/05 05:41:03;;;;;;;4.83;1.33;;;2.00;99.90;;;;;;5053959;28;20517;-92
2022/02/05 05:43:45;;;;;;;7.60;1.53;;;2.00;99.90;;;;;;5053824;28;20551;-92
2022/02/05 05:51:18;;;;;;;8.37;2.80;;;2.20;99.90;;;;;;5034995;28;20178;-92
2022/02/05 05:53:44;;;;;;;7.70;2.40;;;2.20;99.90;;;;;;5033923;28;20228;-92
2022/02/05 05:56:11;;;;;;;14.20;3.10;;;2.30;99.90;;;;;;5051607;28;20201;-93
2022/02/05 05:58:38;;;;;;;5.07;2.33;;;2.40;99.90;;;;;;5054236;28;20189;-92
2022/02/05 06:01:03;;;;;;;7.43;3.03;;;2.50;99.90;;;;;;5053292;28;20604;-92
2022/02/05 06:03:29;;;;;;;13.47;3.13;;;2.50;99.90;;;;;;5053464;28;20243;-93
2022/02/05 06:05:55;;;;;;;7.00;2.60;;;2.60;99.90;;;;;;5053328;28;20320;-92
2022/02/05 06:08:21;;;;;;;7.23;2.57;;;2.60;99.90;;;;;;5053424;28;20268;-92
2022/02/05 06:10:47;;;;;;;8.13;2.17;;;2.60;99.90;;;;;;5053556;28;20253;-92
2022/02/05 06:13:13;;;;;;;6.77;1.90;;;2.60;99.90;;;;;;5055045;28;20247;-93
2022/02/05 06:15:41;;;;;;;8.60;1.20;;;2.60;99.90;;;;;;5057352;28;22113;-94
2022/02/05 06:18:07;;;;;;;5.97;1.17;;;2.70;99.90;;;;;;5057298;28;20178;-93
2022/02/05 06:20:33;;;;;;;6.67;1.53;;;2.60;99.90;;;;;;5057068;28;20269;-93
2022/02/05 06:22:59;;;;;;;4.77;1.13;;;2.60;99.90;;;;;;5044739;28;20268;-92
2022/02/05 06:25:25;;;;;;;3.93;1.40;;;2.50;99.90;;;;;;5054708;28;20182;-93
2022/02/05 06:27:51;;;;;;;4.43;1.20;;;2.40;99.90;;;;;;5057183;28;20216;-93
2022/02/05 06:30:17;;;;;;;5.93;1.50;;;2.40;99.90;;;;;;5057444;28;20177;-92
2022/02/05 06:32:42;;;;;;;4.77;1.37;;;2.30;99.90;;;;;;5057165;28;20189;-93
2022/02/05 06:35:09;;;;;;;6.47;1.77;;;2.30;99.90;;;;;;5056383;28;20185;-93
2022/02/05 06:37:35;;;;;;;6.70;2.47;;;2.30;99.90;;;;;;5056998;28;20647;-93
2022/02/05 06:40:01;;;;;;;9.13;3.00;;;2.30;99.90;;;;;;5056908;28;20174;-93
2022/02/05 06:42:26;;;;;;;5.53;2.53;;;2.40;99.90;;;;;;5056841;28;20192;-92
2022/02/05 06:44:52;;;;;;;7.37;2.80;;;2.40;99.90;;;;;;5056037;28;20174;-92
2022/02/05 06:47:18;;;;;;;12.50;3.20;;;2.40;99.90;;;;;;5056978;28;20292;-92
2022/02/05 06:49:44;;;;;;;11.33;3.40;;;2.40;99.90;;;;;;5056601;28;20188;-93
2022/02/05 06:52:10;;;;;;;9.87;3.47;;;2.40;99.90;;;;;;5056537;28;20279;-93
2022/02/05 06:54:36;;;;;;;9.73;3.27;;;2.40;99.90;;;;;;5057066;28;20189;-93
2022/02/05 06:57:03;;;;;;;9.77;3.80;;;2.40;99.90;;;;;;5056375;28;20595;-93
2022/02/05 06:59:29;;;;;;;14.53;3.73;;;2.50;99.90;;;;;;5056720;28;20178;-94
2022/02/05 07:01:54;;;;;;;9.97;3.50;;;2.50;99.90;;;;;;5056767;28;20177;-93
2022/02/05 07:04:24;;;;;;;11.60;3.70;;;2.50;99.90;;;;;;5056252;28;20178;-93
2022/02/05 07:06:53;;;;;;;10.50;4.10;;;2.60;99.90;;;;;;5055673;28;20261;-93
2022/02/05 07:09:20;;;;;;;13.90;3.97;;;2.60;99.90;;;;;;5056374;28;20178;-94
2022/02/05 07:11:47;;;;;;;10.13;3.97;;;2.70;99.90;;;;;;5055634;28;20221;-93
2022/02/05 07:14:14;;;;;;;8.37;3.00;;;2.70;99.90;;;;;;5036197;28;20187;-93
2022/02/05 07:16:48;;;;;;;10.73;3.20;;;2.70;99.90;;;;;;5036059;28;20652;-92
2022/02/05 07:21:48;;;;;;;10.93;3.83;;;2.70;99.90;;;;;;5062148;28;20185;-92
2022/02/05 07:29:24;;;;;;;9.03;3.07;;;2.90;99.90;;;;;;5063775;28;20181;-93
2022/02/05 07:31:56;;;;;;;19.60;4.30;;;2.90;99.90;;;;;;5070042;28;20185;-92
2022/02/05 07:34:29;;;;;;;12.23;3.83;;;2.90;99.90;;;;;;5065870;28;20178;-93
2022/02/05 07:37:01;;;;;;;15.20;4.30;;;2.90;99.90;;;;;;5061496;28;20213;-93
2022/02/05 07:39:28;;;;;;;11.10;4.33;;;2.90;99.90;;;;;;5064861;28;20518;-93
2022/02/05 07:41:54;;;;;;;16.80;4.07;;;2.90;99.90;;;;;;5058537;28;20186;-93
2022/02/05 07:44:20;;;;;;;12.67;4.03;;;2.90;99.90;;;;;;5057193;28;20188;-92
2022/02/05 07:46:49;;;;;;;12.97;3.90;;;2.90;99.90;;;;;;5053740;28;20261;-93
2022/02/05 07:49:16;;;;;;;15.17;4.20;;;3.00;99.90;;;;;;5055273;28;20182;-92
2022/02/05 07:51:42;;;;;;;13.40;4.10;;;3.10;99.90;;;;;;5055413;28;20648;-92
2022/02/05 07:54:10;;;;;;;11.80;4.20;;;3.10;99.90;;;;;;5054804;28;20190;-92
2022/02/05 07:56:46;;;;;;;18.50;4.47;;;3.10;99.90;;;;;;5050283;28;20224;-93
2022/02/05 07:59:13;;;;;;;7.40;3.57;;;3.10;99.90;;;;;;5055210;28;20173;-93
2022/02/05 08:01:40;;;;;;;15.97;4.40;;;3.10;99.90;;;;;;5055340;28;20173;-93
2022/02/05 08:04:06;;;;;;;11.83;4.00;;;3.10;99.90;;;;;;5054937;28;20176;-93
2022/02/05 08:06:34;;;;;;;11.07;4.13;;;3.20;99.90;;;;;;5054645;28;20182;-93
2022/02/05 08:09:05;;;;;;;12.30;3.80;;;3.20;99.90;;;;;;5055004;28;20604;-93
2022/02/05 08:11:39;;;;;;;11.03;3.73;;;3.20;99.90;;;;;;5054528;28;20225;-93
2022/02/05 08:14:08;;;;;;;14.30;4.00;;;3.30;99.90;;;;;;5054610;28;20170;-92
2022/02/05 08:19:16;;;;;;;11.17;3.60;;;3.30;99.90;;;;;;5055947;28;20189;-92
2022/02/05 08:21:42;;;;;;;15.83;4.07;;;3.30;99.90;;;;;;5054698;28;20700;-93
2022/02/05 08:24:09;;;;;;;16.20;3.93;;;3.30;99.90;;;;;;5054818;28;20253;-92
2022/02/05 08:26:36;;;;;;;13.10;3.30;;;3.40;99.90;;;;;;5052284;28;20647;-93
2022/02/05 08:29:02;;;;;;;16.57;3.13;;;3.40;99.90;;;;;;5053102;28;20196;-93
2022/02/05 08:31:30;;;;;;;15.30;3.83;;;3.30;99.90;;;;;;5052676;28;20239;-92
2022/02/05 08:33:56;;;;;;;11.33;3.17;;;3.30;99.90;;;;;;5054029;28;20186;-92
2022/02/05 08:36:23;;;;;;;10.90;3.20;;;3.40;99.90;;;;;;5054683;28;20210;-93
2022/02/05 08:38:50;;;;;;;10.47;3.70;;;3.40;99.90;;;;;;5056160;28;20174;-92
2022/02/05 08:41:16;;;;;;;13.47;3.43;;;3.40;99.90;;;;;;5053799;28;20186;-92
2022/02/05 08:43:41;;;;;;;10.83;3.63;;;3.40;99.90;;;;;;5050364;28;20186;-92
2022/02/05 08:46:07;;;;;;;12.80;3.43;;;3.50;99.90;;;;;;5054059;28;20182;-91
2022/02/05 08:48:34;;;;;;;14.10;4.17;;;3.50;99.90;;;;;;5054088;28;20201;-92
2022/02/05 08:51:00;;;;;;;12.30;3.80;;;3.60;99.90;;;;;;5053521;28;20178;-93
2022/02/05 08:53:26;;;;;;;12.37;4.47;;;3.70;99.90;;;;;;5052426;28;20554;-92
2022/02/05 08:55:59;;;;;;;15.33;3.83;;;3.70;99.90;;;;;;5054226;28;20212;-93
2022/02/05 08:58:26;;;;;;;14.97;4.00;;;3.70;99.90;;;;;;5054572;28;20185;-93
2022/02/05 09:01:06;;;;;;;16.23;4.47;;;3.70;99.90;;;;;;5054438;28;20174;-92
2022/02/05 09:03:48;;;;;;;17.23;4.10;;;3.70;99.90;;;;;;5052572;28;20217;-92
2022/02/05 09:06:16;;;;;;;16.27;4.80;;;3.80;99.90;;;;;;5034587;28;20544;-92
2022/02/05 09:08:48;;;;;;;12.13;3.80;;;3.90;99.90;;;;;;5034451;28;20244;-92
2022/02/05 09:11:29;;;;;;;8.90;3.93;;;4.00;99.90;;;;;;5034595;28;20684;-93
2022/02/05 09:16:23;;;;;;;16.67;4.77;;;4.00;99.90;;;;;;5055828;28;20213;-93
2022/02/05 09:18:49;;;;;;;13.13;3.93;;;4.10;99.90;;;;;;5054428;28;20173;-94
2022/02/05 09:21:16;;;;;;;16.40;4.50;;;4.20;99.90;;;;;;5054168;28;20548;-94
2022/02/05 09:23:45;;;;;;;13.00;3.77;;;4.30;99.90;;;;;;5054145;28;20182;-93
2022/02/05 09:26:17;;;;;;;11.97;3.43;;;4.40;99.90;;;;;;5054026;28;20320;-95
2022/02/05 09:28:43;;;;;;;12.53;3.97;;;4.40;99.90;;;;;;5054149;28;20182;-94
2022/02/05 09:33:37;;;;;;;15.10;3.77;;;4.50;99.90;;;;;;5055889;28;20193;-93
2022/02/05 09:36:06;;;;;;;13.40;4.57;;;4.60;99.90;;;;;;5073779;28;20295;-94
2022/02/05 09:38:33;;;;;;;11.53;3.70;;;4.60;99.90;;;;;;5054072;28;20272;-92
2022/02/05 09:40:59;;;;;;;9.43;3.87;;;4.70;99.90;;;;;;5053508;28;20196;-94
2022/02/05 09:43:27;;;;;;;10.73;3.93;;;4.80;99.90;;;;;;5053894;28;20174;-94
2022/02/05 09:45:59;;;;;;;13.70;3.77;;;4.70;99.90;;;;;;5053972;28;20182;-92
2022/02/05 09:48:29;;;;;;;13.10;3.57;;;4.80;99.90;;;;;;5056778;28;20209;-93
2022/02/05 09:50:56;;;;;;;17.40;4.30;;;4.80;99.90;;;;;;5058122;28;20169;-92
2022/02/05 09:53:22;;;;;;;16.87;4.03;;;4.80;99.90;;;;;;5057772;28;20181;-93
2022/02/05 09:55:50;;;;;;;13.30;3.50;;;4.80;99.90;;;;;;5058996;28;20265;-93
2022/02/05 09:58:17;;;;;;;17.83;3.60;;;4.90;99.90;;;;;;5057846;28;20189;-92
2022/02/05 10:01:12;;;;;;;12.27;3.07;;;4.80;99.90;;;;;;5058072;28;20174;-93
2022/02/05 10:03:39;;;;;;;12.23;3.53;;;4.90;99.90;;;;;;5057847;28;20178;-93
2022/02/05 10:06:13;;;;;;;11.17;3.63;;;4.90;99.90;;;;;;5058053;28;20220;-94
2022/02/05 10:08:44;;;;;;;11.93;3.07;;;5.00;99.90;;;;;;5057661;28;20560;-93
2022/02/05 10:11:10;;;;;;;10.13;3.40;;;5.00;99.90;;;;;;5057595;28;20339;-93
2022/02/05 10:13:38;;;;;;;9.87;3.63;;;5.10;99.90;;;;;;5057720;28;20272;-93
2022/02/05 10:16:04;;;;;;;11.13;3.10;;;5.00;99.90;;;;;;5057569;28;20294;-94
2022/02/05 10:18:33;;;;;;;13.97;3.43;;;5.00;99.90;;;;;;5057598;28;20174;-93
2022/02/05 10:21:01;;;;;;;11.73;2.57;;;5.00;99.90;;;;;;5057685;28;20236;-93
2022/02/05 10:23:29;;;;;;;21.80;3.73;;;4.90;99.90;;;;;;5057399;28;20205;-93
2022/02/05 10:25:55;;;;;;;15.20;3.27;;;4.80;99.90;;;;;;5057540;28;20206;-94
2022/02/05 10:28:23;;;;;;;22.07;4.03;;;4.90;99.90;;;;;;5057535;28;20240;-94
2022/02/05 10:30:53;;;;;;;12.47;3.07;;;4.90;99.90;;;;;;5057413;28;20181;-93
2022/02/05 10:36:24;;;;;;;12.77;2.60;;;5.10;99.90;;;;;;5058014;28;20270;-94
2022/02/05 10:39:10;;;;;;;15.37;3.50;;;5.10;99.90;;;;;;5057089;28;20181;-93
2022/02/05 10:44:16;;;;;;;14.93;3.00;;;5.10;99.90;;;;;;5058296;28;20180;-93
2022/02/05 10:46:53;;;;;;;12.87;2.33;;;5.00;99.90;;;;;;5057019;28;20524;-93
2022/02/05 10:49:43;;;;;;;15.50;2.90;;;5.10;99.90;;;;;;5057146;28;20182;-93
2022/02/05 10:52:09;;;;;;;12.57;2.97;;;5.10;99.90;;;;;;5056948;28;20584;-93
2022/02/05 10:54:53;;;;;;;13.17;2.97;;;5.30;99.90;;;;;;5056031;28;20265;-92
2022/02/05 10:57:28;;;;;;;14.97;2.80;;;5.60;99.90;;;;;;5056849;28;20232;-93
2022/02/05 11:05:15;;;;;;;12.93;2.83;;;5.60;99.90;;;;;;5040607;28;20605;-93
2022/02/05 11:05:44;;;;;;;11.27;2.53;;;5.80;99.90;;;;;;5054697;28;20193;-93
2022/02/05 11:08:21;;;;;;;13.40;3.40;;;5.70;99.90;;;;;;5056739;28;20178;-92
2022/02/05 11:18:55;;;;;;;13.77;2.27;;;5.60;99.90;;;;;;5058309;28;20230;-93
2022/02/05 11:21:22;;;;;;;10.13;2.43;;;5.60;99.90;;;;;;5056553;28;20559;-93
2022/02/05 11:23:57;;;;;;;13.67;2.30;;;5.60;99.90;;;;;;5054775;28;20177;-93
2022/02/05 11:26:24;;;;;;;14.30;2.23;;;5.70;99.90;;;;;;5036824;28;20189;-92
2022/02/05 11:28:55;;;;;;;13.47;2.83;;;5.80;99.90;;;;;;5036775;28;20609;-92
2022/02/05 11:31:38;;;;;;;12.90;2.87;;;5.70;99.90;;;;;;5044380;28;20181;-92
2022/02/05 11:34:36;;;;;;;12.93;2.07;;;5.80;99.90;;;;;;5056329;28;20228;-94
2022/02/05 11:37:12;;;;;;;12.90;3.03;;;5.60;99.90;;;;;;5035907;28;20315;-92
2022/02/05 11:39:52;;;;;;;13.13;2.73;;;5.50;99.90;;;;;;5035984;28;20193;-93
2022/02/05 11:42:34;;;;;;;11.97;2.57;;;5.60;99.90;;;;;;5053677;28;20182;-92
2022/02/05 11:45:20;;;;;;;11.07;2.17;;;5.60;99.90;;;;;;5055637;28;20181;-93
2022/02/05 11:47:58;;;;;;;12.83;2.73;;;5.70;99.90;;;;;;5055869;28;20674;-92
2022/02/05 11:50:25;;;;;;;10.17;2.23;;;5.80;99.90;;;;;;5055902;28;20174;-93
2022/02/05 11:52:51;;;;;;;7.00;2.10;;;5.70;99.90;;;;;;5056028;28;20281;-93
2022/02/05 11:55:34;;;;;;;10.70;2.40;;;5.60;99.90;;;;;;5056699;28;20210;-92
2022/02/05 11:58:06;;;;;;;10.00;2.57;;;5.50;99.90;;;;;;5055911;28;20255;-93
2022/02/05 12:00:33;;;;;;;9.00;2.53;;;5.50;99.90;;;;;;5056101;28;20174;-93
2022/02/05 12:03:01;;;;;;;15.27;2.97;;;5.50;99.90;;;;;;5055639;28;20189;-93
2022/02/05 12:05:37;;;;;;;13.13;2.30;;;5.50;99.90;;;;;;5049503;28;20250;-93
2022/02/05 12:08:12;;;;;;;13.27;2.40;;;5.60;99.90;;;;;;5035517;28;20205;-92
2022/02/05 12:10:50;;;;;;;11.67;2.37;;;5.80;99.90;;;;;;5051139;28;20226;-92
2022/02/05 12:13:24;;;;;;;9.93;2.30;;;5.70;99.90;;;;;;5042883;28;20536;-92
2022/02/05 12:15:55;;;;;;;7.50;2.00;;;5.60;99.90;;;;;;5055231;28;20174;-93
2022/02/05 12:18:29;;;;;;;6.87;2.10;;;5.70;99.90;;;;;;5055576;28;20182;-92
2022/02/05 12:21:11;;;;;;;7.97;2.13;;;5.60;99.90;;;;;;5055423;28;20185;-92
2022/02/05 12:26:25;;;;;;;11.57;2.10;;;5.60;99.90;;;;;;5056465;28;20188;-92
2022/02/05 12:29:02;;;;;;;10.20;2.57;;;5.50;99.90;;;;;;5054906;28;20177;-93
2022/02/05 12:31:36;;;;;;;8.73;2.40;;;5.50;99.90;;;;;;5055199;28;20200;-92
2022/02/05 12:34:11;;;;;;;9.67;2.43;;;5.60;99.90;;;;;;5055168;28;20169;-92
2022/02/05 12:36:40;;;;;;;12.93;2.13;;;5.50;99.90;;;;;;5054897;28;20209;-91
2022/02/05 12:39:39;;;;;;;16.40;2.50;;;5.60;99.90;;;;;;5054658;28;20181;-92
2022/02/05 12:42:14;;;;;;;9.90;2.07;;;5.60;99.90;;;;;;5013029;28;20640;-93
2022/02/05 12:44:42;;;;;;;8.77;2.67;;;5.60;99.90;;;;;;5035007;28;20178;-92
2022/02/05 12:47:17;;;;;;;9.80;2.27;;;5.50;99.90;;;;;;5034911;28;20198;-93
2022/02/05 12:50:07;;;;;;;7.00;2.30;;;5.60;99.90;;;;;;5035137;28;20202;-93
2022/02/05 12:52:33;;;;;;;12.63;2.30;;;5.50;99.90;;;;;;5035693;28;20229;-93
2022/02/05 12:55:01;;;;;;;13.80;2.50;;;5.40;99.90;;;;;;5057599;28;20694;-93
2022/02/05 12:57:31;;;;;;;11.57;2.20;;;5.40;99.90;;;;;;5054550;28;20245;-93
2022/02/05 13:00:17;;;;;;;18.47;2.63;;;5.40;99.90;;;;;;5054678;28;20213;-94
2022/02/05 13:02:42;;;;;;;9.43;2.10;;;5.40;99.90;;;;;;5054699;28;20612;-93
2022/02/05 13:05:08;;;;;;;15.40;2.47;;;5.30;99.90;;;;;;5055364;28;20185;-93
2022/02/05 13:07:43;;;;;;;11.23;2.10;;;5.40;99.90;;;;;;5055681;28;20174;-94
2022/02/05 13:10:09;;;;;;;13.87;3.33;;;5.40;99.90;;;;;;5054314;28;20738;-93
2022/02/05 13:12:43;;;;;;;14.37;2.60;;;5.40;99.90;;;;;;5054512;28;20216;-93
2022/02/05 13:15:22;;;;;;;10.47;2.47;;;5.40;99.90;;;;;;5054348;28;20182;-92
2022/02/05 13:34:06;;;;;;;9.33;2.40;;;5.70;99.90;;;;;;5035901;28;20197;-93
2022/02/05 13:37:24;;;;;;;8.37;2.23;;;5.70;99.90;;;;;;5034233;28;20615;-93
2022/02/05 13:42:20;;;;;;;15.97;2.33;;;5.70;99.90;;;;;;5054923;28;20189;-93
2022/02/05 13:45:09;;;;;;;8.23;2.30;;;5.60;99.90;;;;;;5054349;28;20188;-93
2022/02/05 13:47:44;;;;;;;14.00;2.37;;;5.60;99.90;;;;;;5059671;28;20182;-92
2022/02/05 13:50:21;;;;;;;11.33;2.30;;;5.70;99.90;;;;;;5070294;28;20173;-93
2022/02/05 13:52:49;;;;;;;9.10;2.70;;;5.60;99.90;;;;;;5054276;28;20193;-91
2022/02/05 13:55:22;;;;;;;5.43;1.90;;;5.60;99.90;;;;;;5062711;28;20181;-93
2022/02/05 13:57:53;;;;;;;11.23;2.43;;;5.70;99.90;;;;;;5073867;28;20315;-92
2022/02/05 14:00:20;;;;;;;11.87;2.53;;;5.70;99.90;;;;;;5073950;28;20180;-92
2022/02/05 14:02:57;;;;;;;12.17;2.03;;;5.80;99.90;;;;;;5073501;28;20184;-93
2022/02/05 14:05:23;;;;;;;8.33;2.07;;;5.80;99.90;;;;;;5033894;28;20178;-93
2022/02/05 14:07:48;;;;;;;9.83;2.10;;;5.90;99.90;;;;;;5060302;28;20248;-92
2022/02/05 14:10:21;;;;;;;12.33;2.20;;;6.00;99.90;;;;;;5069058;28;20225;-93
2022/02/05 14:12:48;;;;;;;11.57;2.23;;;6.00;99.90;;;;;;5053707;28;20185;-93
2022/02/05 14:15:14;;;;;;;9.83;2.23;;;6.00;99.90;;;;;;5053583;28;20210;-93
2022/02/05 14:17:40;;;;;;;6.73;2.00;;;6.00;99.90;;;;;;5053444;28;20555;-94
2022/02/05 14:20:14;;;;;;;7.37;2.20;;;6.00;99.90;;;;;;5053686;28;20582;-93
2022/02/05 14:22:45;;;;;;;8.17;2.20;;;6.00;99.90;;;;;;5053818;28;20217;-93
2022/02/05 14:25:20;;;;;;;5.47;1.73;;;5.90;99.90;;;;;;5053478;28;20594;-94
2022/02/05 14:28:16;;;;;;;6.90;1.80;;;5.80;99.90;;;;;;5033968;28;20582;-92
2022/02/05 14:31:05;;;;;;;14.17;2.53;;;5.70;99.90;;;;;;5033716;28;20171;-93
2022/02/05 14:33:47;;;;;;;8.33;1.83;;;5.70;99.90;;;;;;5046980;28;20194;-93
2022/02/05 14:41:51;;;;;;;6.03;2.10;;;5.40;99.90;;;;;;5058530;28;20204;-93
2022/02/05 14:44:17;;;;;;;11.53;2.30;;;5.40;99.90;;;;;;5057176;28;20185;-93
2022/02/05 14:46:44;;;;;;;7.13;2.07;;;5.40;99.90;;;;;;5052664;28;20189;-93
2022/02/05 14:49:16;;;;;;;7.37;2.43;;;5.40;99.90;;;;;;5045641;28;20183;-92
2022/02/05 14:51:42;;;;;;;10.50;1.97;;;5.40;99.90;;;;;;5037113;28;20181;-93
2022/02/05 14:54:08;;;;;;;9.20;2.37;;;5.30;99.90;;;;;;5036897;28;20688;-92
2022/02/05 14:56:35;;;;;;;11.03;2.33;;;5.30;99.90;;;;;;5067607;28;20209;-93
2022/02/05 14:59:01;;;;;;;4.63;2.17;;;5.30;99.90;;;;;;5068740;28;20533;-90
2022/02/05 15:01:26;;;;;;;6.43;2.07;;;5.30;99.90;;;;;;5056645;28;20180;-91
2022/02/05 15:03:57;;;;;;;4.87;1.97;;;5.30;99.90;;;;;;5056471;28;20197;-93
2022/02/05 15:06:26;;;;;;;6.57;2.23;;;5.20;99.90;;;;;;5056659;28;20178;-92
2022/02/05 15:08:54;;;;;;;9.10;2.53;;;5.30;99.90;;;;;;5056385;28;20706;-92
2022/02/05 15:11:20;;;;;;;10.30;2.80;;;5.30;99.90;;;;;;5056539;28;20225;-93
2022/02/05 15:13:47;;;;;;;6.30;2.40;;;5.20;99.90;;;;;;5056636;28;20178;-92
2022/02/05 15:16:16;;;;;;;10.53;2.80;;;5.20;99.90;;;;;;5056679;28;20213;-92
2022/02/05 15:18:52;;;;;;;5.97;2.40;;;5.20;99.90;;;;;;5056662;28;20188;-92
2022/02/05 15:21:18;;;;;;;8.40;2.40;;;5.20;99.90;;;;;;5038033;28;20502;-92
2022/02/05 15:23:45;;;;;;;11.50;2.73;;;5.20;99.90;;;;;;5037002;28;20186;-93
2022/02/05 15:26:10;;;;;;;6.40;2.30;;;5.20;99.90;;;;;;5054687;28;20182;-93
2022/02/05 15:28:36;;;;;;;9.50;2.20;;;5.20;99.90;;;;;;5056485;28;20174;-93
2022/02/05 15:31:04;;;;;;;9.13;2.50;;;5.20;99.90;;;;;;5056285;28;20188;-93
2022/02/05 15:33:31;;;;;;;8.03;2.70;;;5.20;99.90;;;;;;5056275;28;20490;-93
2022/02/05 15:36:02;;;;;;;8.50;2.20;;;5.20;99.90;;;;;;5056184;28;20173;-92
2022/02/05 15:38:39;;;;;;;8.33;2.27;;;5.20;99.90;;;;;;5056533;28;20174;-91
2022/02/05 15:43:52;;;;;;;7.33;2.60;;;5.10;99.90;;;;;;5057474;28;20239;-92
2022/02/05 15:46:19;;;;;;;10.03;2.40;;;5.10;99.90;;;;;;5054796;28;20227;-92
2022/02/05 15:48:45;;;;;;;7.93;2.50;;;5.10;99.90;;;;;;5056005;28;20245;-91
2022/02/05 15:51:19;;;;;;;9.73;2.50;;;5.10;99.90;;;;;;5055819;28;20182;-91
2022/02/05 15:53:50;;;;;;;10.93;2.83;;;5.10;99.90;;;;;;5055657;28;20174;-92
2022/02/05 15:56:28;;;;;;;4.67;2.03;;;5.10;99.90;;;;;;5055863;28;20198;-92
2022/02/05 15:58:55;;;;;;;8.37;2.53;;;5.10;99.90;;;;;;5055678;28;20189;-92
2022/02/05 16:01:21;;;;;;;7.03;2.93;;;5.00;99.90;;;;;;5055834;28;20264;-92
2022/02/05 16:03:47;;;;;;;8.10;2.80;;;5.00;99.90;;;;;;5055665;28;20321;-93
2022/02/05 16:06:13;;;;;;;7.17;2.73;;;5.00;99.90;;;;;;5055626;28;20703;-94
2022/02/05 16:08:39;;;;;;;9.07;2.50;;;5.00;99.90;;;;;;5056575;28;20631;-94
2022/02/05 16:11:04;;;;;;;9.77;2.93;;;5.00;99.90;;;;;;5041892;28;20221;-93